Kofu, Japan
Current Conditions -  °F | °C
As of 6:58 AM on Friday 24 Oct 2014 (Local Time) from RJTY Reporting Station
Overcast Overcast  
Wind Chill: 54°   Ceiling: 3700
Heat Index: 54°   Visibility: 10mi
Dew Point: 51°   Wind: 0mph
Humidity: 90%   Direction: NA
Pressure: 30.23"   Gusts: NA
Location:  35.66°N, 138.57°E
Report Text: RJTY 232158Z AUTO 00000KT 10SM OVC037 12/11 A3023 RMK AO2 SLP241 T01230107
Loading
Personal Weather Stations






























Interactive Weather Map
Tropical Storm Tracking
New forecast layout! Learn more

10-Day Weather Forecast

Advertisements
Track Severe Weather on mobile